Time;durP1;ratioP1;P1;durP2;ratioP2;P2;SDS_P1;SDS_P2;PMS_P1;PMS_P2;Temp;Humidity;BMP_temperature;BMP_pressure;BME280_temperature;BME280_humidity;BME280_pressure;Samples;Min_cycle;Max_cycle;Signal;HPM_P1;HPM_P2
2023/10/26 00:02:07;;;;;;;;;;;;;;;;;;5124773;28;19916;-56
2023/10/26 00:04:32;;;;;;;;;;;;;;;;;;5117445;28;19916;-55
2023/10/26 00:06:58;;;;;;;;;;;;;;;;;;5120593;28;19921;-52
2023/10/26 00:09:23;;;;;;;;;;;;;;;;;;5116905;28;19912;-53
2023/10/26 00:11:49;;;;;;;;;;;;;;;;;;5126149;28;19979;-52
2023/10/26 00:14:15;;;;;;;;;;;;;;;;;;5119341;27;19912;-53
2023/10/26 00:16:40;;;;;;;;;;;;;;;;;;5117320;28;19913;-55
2023/10/26 00:19:05;;;;;;;;;;;;;;;;;;5117372;28;20059;-54
2023/10/26 00:21:31;;;;;;;;;;;;;;;;;;5124955;28;19912;-55
2023/10/26 00:23:56;;;;;;;;;;;;;;;;;;5122002;28;19912;-56
2023/10/26 00:32:28;;;;;;;;;;;;;;;;;;5116355;28;19934;-53
2023/10/26 00:34:53;;;;;;;;;;;;;;;;;;5116080;28;19916;-56
2023/10/26 00:37:19;;;;;;;;;;;;;;;;;;5115836;28;19912;-57
2023/10/26 00:39:44;;;;;;;;;;;;;;;;;;5116968;28;19919;-55
2023/10/26 00:42:11;;;;;;;;;;;;;;;;;;5116537;28;19923;-57
2023/10/26 00:44:37;;;;;;;;;;;;;;;;;;5117020;28;19952;-57
2023/10/26 00:47:02;;;;;;;;;;;;;;;;;;5116290;28;19924;-56
2023/10/26 00:49:27;;;;;;;;;;;;;;;;;;5116466;28;19944;-55
2023/10/26 00:51:53;;;;;;;;;;;;;;;;;;5118442;28;19912;-53
2023/10/26 00:54:18;;;;;;;;;;;;;;;;;;5114844;28;19912;-53
2023/10/26 00:56:44;;;;;;;;;;;;;;;;;;5122163;28;19912;-52
2023/10/26 00:59:09;;;;;;;;;;;;;;;;;;5115676;28;19951;-55
2023/10/26 01:01:35;;;;;;;;;;;;;;;;;;5116657;28;19916;-56
2023/10/26 01:04:00;;;;;;;;;;;;;;;;;;5116386;28;19912;-52
2023/10/26 01:06:26;;;;;;;;;;;;;;;;;;5118727;28;19912;-53
2023/10/26 01:08:53;;;;;;;;;;;;;;;;;;5116135;28;19922;-55
2023/10/26 01:11:18;;;;;;;;;;;;;;;;;;5116595;28;19911;-56
2023/10/26 01:13:44;;;;;;;;;;;;;;;;;;5124534;28;19968;-55
2023/10/26 01:16:09;;;;;;;;;;;;;;;;;;5116078;28;19912;-54
2023/10/26 01:18:35;;;;;;;;;;;;;;;;;;5115616;28;19912;-54
2023/10/26 01:21:00;;;;;;;;;;;;;;;;;;5116045;28;19916;-55
2023/10/26 01:23:26;;;;;;;;;;;;;;;;;;5122880;28;19912;-56
2023/10/26 01:25:51;;;;;;;;;;;;;;;;;;5116972;28;19986;-54
2023/10/26 01:28:18;;;;;;;;;;;;;;;;;;5129594;28;19916;-52
2023/10/26 01:30:43;;;;;;;;;;;;;;;;;;5116884;28;19976;-53
2023/10/26 01:33:08;;;;;;;;;;;;;;;;;;5119018;28;19912;-55
2023/10/26 01:35:35;;;;;;;;;;;;;;;;;;5115799;28;19919;-51
2023/10/26 01:38:01;;;;;;;;;;;;;;;;;;5122137;28;19916;-53
2023/10/26 01:40:26;;;;;;;;;;;;;;;;;;5115726;28;19946;-55
2023/10/26 01:42:51;;;;;;;;;;;;;;;;;;5115202;28;19912;-55
2023/10/26 01:45:17;;;;;;;;;;;;;;;;;;5114605;28;19919;-50
2023/10/26 01:47:42;;;;;;;;;;;;;;;;;;5118666;28;19966;-53
2023/10/26 01:50:09;;;;;;;;;;;;;;;;;;5114674;28;19912;-55
2023/10/26 01:52:34;;;;;;;;;;;;;;;;;;5123976;28;19915;-55
2023/10/26 01:55:00;;;;;;;;;;;;;;;;;;5116876;28;19942;-54
2023/10/26 01:57:25;;;;;;;;;;;;;;;;;;5114516;28;19912;-56
2023/10/26 01:59:54;;;;;;;;;;;;;;;;;;5114516;28;19912;-57
2023/10/26 02:02:20;;;;;;;;;;;;;;;;;;5119788;28;19912;-56
2023/10/26 02:04:46;;;;;;;;;;;;;;;;;;5117205;28;19916;-54
2023/10/26 02:07:12;;;;;;;;;;;;;;;;;;5115203;28;20018;-55
2023/10/26 02:09:37;;;;;;;;;;;;;;;;;;5114757;28;19935;-54
2023/10/26 02:12:03;;;;;;;;;;;;;;;;;;5117137;28;19938;-57
2023/10/26 02:14:28;;;;;;;;;;;;;;;;;;5117788;28;19912;-56
2023/10/26 02:16:53;;;;;;;;;;;;;;;;;;5115418;28;19982;-55
2023/10/26 02:19:19;;;;;;;;;;;;;;;;;;5114001;28;19912;-54
2023/10/26 02:21:44;;;;;;;;;;;;;;;;;;5114423;28;19950;-54
2023/10/26 02:24:10;;;;;;;;;;;;;;;;;;5127469;28;19927;-57
2023/10/26 02:26:35;;;;;;;;;;;;;;;;;;5117121;28;19912;-56
2023/10/26 02:29:01;;;;;;;;;;;;;;;;;;5119321;28;19916;-52
2023/10/26 02:31:26;;;;;;;;;;;;;;;;;;5114199;28;19912;-55
2023/10/26 02:33:52;;;;;;;;;;;;;;;;;;5127331;28;19912;-56
2023/10/26 02:36:18;;;;;;;;;;;;;;;;;;5115212;28;19912;-54
2023/10/26 02:38:43;;;;;;;;;;;;;;;;;;5114985;28;19975;-55
2023/10/26 02:41:09;;;;;;;;;;;;;;;;;;5114240;28;19917;-55
2023/10/26 02:43:34;;;;;;;;;;;;;;;;;;5123881;28;19935;-56
2023/10/26 02:46:00;;;;;;;;;;;;;;;;;;5115095;28;19934;-54
2023/10/26 02:48:25;;;;;;;;;;;;;;;;;;5113490;28;19927;-57
2023/10/26 02:50:51;;;;;;;;;;;;;;;;;;5124429;28;19920;-57
2023/10/26 02:53:17;;;;;;;;;;;;;;;;;;5120907;28;19911;-56
2023/10/26 02:55:43;;;;;;;;;;;;;;;;;;5114252;28;19916;-56
2023/10/26 02:58:08;;;;;;;;;;;;;;;;;;5124480;28;19919;-53
2023/10/26 03:00:33;;;;;;;;;;;;;;;;;;5114865;28;19928;-56
2023/10/26 03:02:58;;;;;;;;;;;;;;;;;;5116575;28;19915;-53
2023/10/26 03:05:24;;;;;;;;;;;;;;;;;;5114800;28;19945;-51
2023/10/26 03:07:49;;;;;;;;;;;;;;;;;;5130660;28;19915;-57
2023/10/26 03:10:15;;;;;;;;;;;;;;;;;;5113605;28;19912;-55
2023/10/26 03:12:40;;;;;;;;;;;;;;;;;;5108794;28;19920;-54
2023/10/26 03:15:06;;;;;;;;;;;;;;;;;;5115837;28;19934;-55
2023/10/26 03:17:32;;;;;;;;;;;;;;;;;;5115527;28;19965;-53
2023/10/26 03:19:57;;;;;;;;;;;;;;;;;;5118488;28;19934;-52
2023/10/26 03:22:22;;;;;;;;;;;;;;;;;;5117442;28;19921;-56
2023/10/26 03:24:48;;;;;;;;;;;;;;;;;;5117609;28;19926;-57
2023/10/26 03:27:13;;;;;;;;;;;;;;;;;;5117853;28;19919;-58
2023/10/26 03:29:40;;;;;;;;;;;;;;;;;;5118403;28;19912;-57
2023/10/26 03:32:06;;;;;;;;;;;;;;;;;;5117368;28;19908;-53
2023/10/26 03:34:31;;;;;;;;;;;;;;;;;;5126813;28;19942;-56
2023/10/26 03:36:57;;;;;;;;;;;;;;;;;;5117217;28;19920;-55
2023/10/26 03:39:23;;;;;;;;;;;;;;;;;;5116918;28;19942;-56
2023/10/26 03:41:49;;;;;;;;;;;;;;;;;;5116793;28;19916;-55
2023/10/26 03:44:14;;;;;;;;;;;;;;;;;;5118226;28;19913;-57
2023/10/26 03:46:40;;;;;;;;;;;;;;;;;;5117744;28;19916;-58
2023/10/26 03:49:05;;;;;;;;;;;;;;;;;;5118122;28;19923;-54
2023/10/26 03:51:31;;;;;;;;;;;;;;;;;;5118089;28;19950;-54
2023/10/26 03:53:57;;;;;;;;;;;;;;;;;;5117636;28;19912;-55
2023/10/26 03:56:22;;;;;;;;;;;;;;;;;;5116489;28;19996;-54
2023/10/26 03:58:48;;;;;;;;;;;;;;;;;;5117873;28;19912;-54
2023/10/26 04:01:14;;;;;;;;;;;;;;;;;;5129286;28;19912;-54
2023/10/26 04:03:39;;;;;;;;;;;;;;;;;;5123430;28;19912;-56
2023/10/26 04:06:04;;;;;;;;;;;;;;;;;;5119282;28;19934;-54
2023/10/26 04:08:30;;;;;;;;;;;;;;;;;;5117401;28;19919;-50
2023/10/26 04:10:55;;;;;;;;;;;;;;;;;;5121093;28;19912;-54
2023/10/26 04:13:21;;;;;;;;;;;;;;;;;;5117390;28;19938;-54
2023/10/26 04:15:48;;;;;;;;;;;;;;;;;;5117349;28;19916;-54
2023/10/26 04:18:14;;;;;;;;;;;;;;;;;;5117181;28;19912;-54
2023/10/26 04:20:40;;;;;;;;;;;;;;;;;;5115689;28;19942;-57
2023/10/26 04:23:05;;;;;;;;;;;;;;;;;;5108095;28;19912;-55
2023/10/26 04:25:31;;;;;;;;;;;;;;;;;;5118424;28;19916;-56
2023/10/26 04:27:56;;;;;;;;;;;;;;;;;;5115349;28;19916;-54
2023/10/26 04:30:22;;;;;;;;;;;;;;;;;;5102893;28;19920;-55
2023/10/26 04:32:47;;;;;;;;;;;;;;;;;;5116986;28;19919;-56
2023/10/26 04:35:13;;;;;;;;;;;;;;;;;;5119013;28;19916;-57
2023/10/26 04:37:39;;;;;;;;;;;;;;;;;;5116941;28;19912;-52
2023/10/26 04:40:05;;;;;;;;;;;;;;;;;;5117965;28;19920;-56
2023/10/26 04:42:31;;;;;;;;;;;;;;;;;;5103751;28;19912;-54
2023/10/26 04:44:56;;;;;;;;;;;;;;;;;;5116663;28;19979;-53
2023/10/26 04:47:23;;;;;;;;;;;;;;;;;;5116564;28;19923;-56
2023/10/26 04:49:49;;;;;;;;;;;;;;;;;;5116684;28;19912;-55
2023/10/26 04:52:18;;;;;;;;;;;;;;;;;;5116781;28;19934;-55
2023/10/26 04:54:43;;;;;;;;;;;;;;;;;;5116601;28;19923;-54
2023/10/26 04:57:08;;;;;;;;;;;;;;;;;;5116795;28;19912;-52
2023/10/26 04:59:36;;;;;;;;;;;;;;;;;;5115747;28;21283;-56
2023/10/26 05:02:01;;;;;;;;;;;;;;;;;;5125947;28;19912;-56
2023/10/26 05:04:26;;;;;;;;;;;;;;;;;;5122997;28;19923;-56
2023/10/26 05:06:52;;;;;;;;;;;;;;;;;;5115963;28;19933;-58
2023/10/26 05:09:17;;;;;;;;;;;;;;;;;;5115974;28;19919;-59
2023/10/26 05:11:43;;;;;;;;;;;;;;;;;;5126315;28;19916;-58
2023/10/26 05:14:09;;;;;;;;;;;;;;;;;;5121222;28;19911;-60
2023/10/26 05:16:34;;;;;;;;;;;;;;;;;;5115688;28;19934;-58
2023/10/26 05:18:59;;;;;;;;;;;;;;;;;;5116185;28;19912;-58
2023/10/26 05:21:25;;;;;;;;;;;;;;;;;;5116346;28;19934;-61
2023/10/26 05:23:50;;;;;;;;;;;;;;;;;;5118292;28;19919;-61
2023/10/26 05:26:16;;;;;;;;;;;;;;;;;;5125860;28;19912;-62
2023/10/26 05:28:41;;;;;;;;;;;;;;;;;;5115952;28;19916;-60
2023/10/26 05:31:07;;;;;;;;;;;;;;;;;;5124927;28;19967;-58
2023/10/26 05:33:32;;;;;;;;;;;;;;;;;;5119039;28;19924;-57
2023/10/26 05:35:58;;;;;;;;;;;;;;;;;;5125328;28;19908;-61
2023/10/26 05:38:23;;;;;;;;;;;;;;;;;;5115860;28;19946;-60
2023/10/26 05:40:49;;;;;;;;;;;;;;;;;;5115685;28;19938;-61
2023/10/26 05:43:14;;;;;;;;;;;;;;;;;;5115604;28;19912;-61
2023/10/26 05:45:40;;;;;;;;;;;;;;;;;;5122422;28;19912;-59
2023/10/26 05:48:06;;;;;;;;;;;;;;;;;;5115931;28;19983;-61
2023/10/26 05:50:31;;;;;;;;;;;;;;;;;;5118249;28;19912;-61
2023/10/26 05:52:57;;;;;;;;;;;;;;;;;;5118601;28;19971;-60
2023/10/26 05:55:23;;;;;;;;;;;;;;;;;;5115314;28;19938;-61
2023/10/26 05:57:49;;;;;;;;;;;;;;;;;;5115602;28;19920;-62
2023/10/26 06:00:15;;;;;;;;;;;;;;;;;;5118067;28;19919;-61
2023/10/26 06:02:40;;;;;;;;;;;;;;;;;;5118096;28;19912;-60
2023/10/26 06:05:07;;;;;;;;;;;;;;;;;;5116444;28;19919;-62
2023/10/26 06:07:32;;;;;;;;;;;;;;;;;;5115076;28;20134;-53
2023/10/26 06:09:57;;;;;;;;;;;;;;;;;;5115095;28;19934;-59
2023/10/26 06:12:22;;;;;;;;;;;;;;;;;;5115195;28;19916;-61
2023/10/26 06:14:48;;;;;;;;;;;;;;;;;;5124875;28;19961;-60
2023/10/26 06:17:15;;;;;;;;;;;;;;;;;;5118310;28;19923;-61
2023/10/26 06:19:40;;;;;;;;;;;;;;;;;;5115509;28;19934;-60
2023/10/26 06:22:06;;;;;;;;;;;;;;;;;;5125810;28;19963;-62
2023/10/26 06:24:31;;;;;;;;;;;;;;;;;;5120586;28;19983;-60
2023/10/26 06:26:56;;;;;;;;;;;;;;;;;;5119142;28;19934;-61
2023/10/26 06:29:22;;;;;;;;;;;;;;;;;;5115047;28;19916;-59
2023/10/26 06:31:47;;;;;;;;;;;;;;;;;;5126266;28;19959;-60
2023/10/26 06:34:13;;;;;;;;;;;;;;;;;;5116610;28;19915;-56
2023/10/26 06:36:38;;;;;;;;;;;;;;;;;;5119571;28;19915;-57
2023/10/26 06:39:04;;;;;;;;;;;;;;;;;;5115103;28;19919;-58
2023/10/26 06:41:30;;;;;;;;;;;;;;;;;;5114917;28;19951;-59
2023/10/26 06:43:56;;;;;;;;;;;;;;;;;;5115357;28;19912;-59
2023/10/26 06:46:21;;;;;;;;;;;;;;;;;;5118435;28;19947;-59
2023/10/26 06:48:47;;;;;;;;;;;;;;;;;;5115129;28;19965;-59
2023/10/26 06:51:12;;;;;;;;;;;;;;;;;;5114876;28;19912;-59
2023/10/26 06:53:38;;;;;;;;;;;;;;;;;;5118467;28;19923;-61
2023/10/26 06:56:03;;;;;;;;;;;;;;;;;;5119602;28;19916;-60
2023/10/26 06:58:28;;;;;;;;;;;;;;;;;;5118383;28;20003;-55
2023/10/26 07:00:54;;;;;;;;;;;;;;;;;;5118441;28;19920;-60
2023/10/26 07:03:20;;;;;;;;;;;;;;;;;;5118053;28;19912;-61
2023/10/26 07:05:47;;;;;;;;;;;;;;;;;;5129885;28;19979;-62
2023/10/26 07:08:13;;;;;;;;;;;;;;;;;;5118777;28;19931;-61
2023/10/26 07:10:38;;;;;;;;;;;;;;;;;;5118827;28;19920;-59
2023/10/26 07:13:04;;;;;;;;;;;;;;;;;;5118429;28;19946;-62
2023/10/26 07:15:30;;;;;;;;;;;;;;;;;;5126199;28;19916;-60
2023/10/26 07:17:56;;;;;;;;;;;;;;;;;;5118412;28;19933;-62
2023/10/26 07:20:21;;;;;;;;;;;;;;;;;;5117833;28;19919;-61
2023/10/26 07:22:47;;;;;;;;;;;;;;;;;;5118227;28;19912;-62
2023/10/26 07:25:13;;;;;;;;;;;;;;;;;;5124633;28;19920;-59
2023/10/26 07:27:38;;;;;;;;;;;;;;;;;;5118334;28;19916;-57
2023/10/26 07:30:04;;;;;;;;;;;;;;;;;;5118327;28;19974;-62
2023/10/26 07:32:29;;;;;;;;;;;;;;;;;;5127070;28;19916;-57
2023/10/26 07:34:55;;;;;;;;;;;;;;;;;;5121995;28;19912;-59
2023/10/26 07:37:21;;;;;;;;;;;;;;;;;;5117143;28;19939;-61
2023/10/26 07:39:47;;;;;;;;;;;;;;;;;;5117445;28;19988;-60
2023/10/26 07:42:12;;;;;;;;;;;;;;;;;;5121666;28;19919;-59
2023/10/26 07:44:38;;;;;;;;;;;;;;;;;;5119520;28;19934;-59
2023/10/26 07:47:03;;;;;;;;;;;;;;;;;;5118096;28;19944;-61
2023/10/26 07:49:28;;;;;;;;;;;;;;;;;;5117831;28;19927;-57
2023/10/26 07:51:54;;;;;;;;;;;;;;;;;;5117926;28;19912;-59
2023/10/26 07:54:20;;;;;;;;;;;;;;;;;;5117808;28;19913;-60
2023/10/26 07:56:45;;;;;;;;;;;;;;;;;;5130194;28;19987;-60
2023/10/26 07:59:11;;;;;;;;;;;;;;;;;;5117336;28;19954;-60
2023/10/26 08:01:36;;;;;;;;;;;;;;;;;;5117553;28;19912;-58
2023/10/26 08:04:02;;;;;;;;;;;;;;;;;;5117238;28;19922;-56
2023/10/26 08:06:27;;;;;;;;;;;;;;;;;;5127106;28;19912;-62
2023/10/26 08:08:53;;;;;;;;;;;;;;;;;;5117496;28;19927;-56
2023/10/26 08:11:18;;;;;;;;;;;;;;;;;;5117460;28;19912;-58
2023/10/26 08:13:44;;;;;;;;;;;;;;;;;;5117294;28;19938;-57
2023/10/26 08:16:11;;;;;;;;;;;;;;;;;;5124383;28;19919;-58
2023/10/26 08:18:36;;;;;;;;;;;;;;;;;;5117382;28;19912;-60
2023/10/26 08:21:03;;;;;;;;;;;;;;;;;;5117420;28;19924;-60
2023/10/26 08:23:29;;;;;;;;;;;;;;;;;;5116972;28;19918;-60
2023/10/26 08:25:55;;;;;;;;;;;;;;;;;;5121305;28;19919;-60
2023/10/26 08:28:20;;;;;;;;;;;;;;;;;;5116863;28;19987;-58
2023/10/26 08:30:46;;;;;;;;;;;;;;;;;;5117165;28;19912;-60
2023/10/26 08:33:11;;;;;;;;;;;;;;;;;;5114235;28;19985;-57
2023/10/26 08:35:36;;;;;;;;;;;;;;;;;;5106812;28;19934;-59
2023/10/26 08:38:02;;;;;;;;;;;;;;;;;;5116669;28;19912;-58
2023/10/26 08:40:27;;;;;;;;;;;;;;;;;;5116759;28;19987;-60
2023/10/26 08:42:53;;;;;;;;;;;;;;;;;;5128345;28;19912;-59
2023/10/26 08:45:18;;;;;;;;;;;;;;;;;;5121102;28;19911;-58
2023/10/26 08:47:44;;;;;;;;;;;;;;;;;;5117684;28;19966;-57
2023/10/26 08:50:09;;;;;;;;;;;;;;;;;;5116754;28;19923;-60
2023/10/26 08:52:35;;;;;;;;;;;;;;;;;;5116760;28;19980;-60
2023/10/26 08:55:00;;;;;;;;;;;;;;;;;;5116878;28;19919;-57
2023/10/26 08:57:26;;;;;;;;;;;;;;;;;;5124013;28;19926;-61
2023/10/26 08:59:51;;;;;;;;;;;;;;;;;;5116644;28;19912;-61
2023/10/26 09:02:16;;;;;;;;;;;;;;;;;;5116703;28;19912;-62
2023/10/26 09:04:42;;;;;;;;;;;;;;;;;;5116359;28;19983;-61
2023/10/26 09:07:07;;;;;;;;;;;;;;;;;;5121773;28;19938;-61
2023/10/26 09:09:32;;;;;;;;;;;;;;;;;;5116086;28;19920;-61
2023/10/26 09:11:58;;;;;;;;;;;;;;;;;;5117297;28;19912;-61
2023/10/26 09:14:23;;;;;;;;;;;;;;;;;;5117070;28;19927;-61
2023/10/26 09:16:49;;;;;;;;;;;;;;;;;;5117874;28;19912;-61
2023/10/26 09:19:14;;;;;;;;;;;;;;;;;;5102376;28;19912;-61
2023/10/26 09:21:40;;;;;;;;;;;;;;;;;;5116395;28;19912;-62
2023/10/26 09:24:05;;;;;;;;;;;;;;;;;;5115803;28;19947;-59
2023/10/26 09:26:31;;;;;;;;;;;;;;;;;;5115851;28;19934;-60
2023/10/26 09:28:56;;;;;;;;;;;;;;;;;;5115943;28;19922;-61
2023/10/26 09:31:21;;;;;;;;;;;;;;;;;;5115864;28;19912;-63
2023/10/26 09:33:46;;;;;;;;;;;;;;;;;;5114524;28;19912;-61
2023/10/26 09:36:12;;;;;;;;;;;;;;;;;;5123527;28;19935;-58
2023/10/26 09:38:41;;;;;;;;;;;;;;;;;;5117229;28;19912;-62
2023/10/26 09:41:10;;;;;;;;;;;;;;;;;;5115963;28;19920;-60
2023/10/26 09:43:36;;;;;;;;;;;;;;;;;;5115796;28;19951;-61
2023/10/26 09:46:01;;;;;;;;;;;;;;;;;;5120867;28;19916;-61
2023/10/26 09:48:27;;;;;;;;;;;;;;;;;;5116667;28;19916;-61
2023/10/26 09:50:52;;;;;;;;;;;;;;;;;;5115788;28;19912;-59
2023/10/26 09:53:19;;;;;;;;;;;;;;;;;;5117830;28;19916;-60
2023/10/26 09:55:45;;;;;;;;;;;;;;;;;;5117385;28;19912;-60
2023/10/26 09:58:10;;;;;;;;;;;;;;;;;;5116423;28;19912;-59
2023/10/26 10:00:36;;;;;;;;;;;;;;;;;;5115723;28;19912;-60
2023/10/26 10:03:01;;;;;;;;;;;;;;;;;;5114512;28;19908;-61
2023/10/26 10:05:26;;;;;;;;;;;;;;;;;;5115432;28;19923;-61
2023/10/26 10:07:51;;;;;;;;;;;;;;;;;;5128569;28;19916;-59
2023/10/26 10:10:17;;;;;;;;;;;;;;;;;;5115414;28;19916;-60
2023/10/26 10:12:43;;;;;;;;;;;;;;;;;;5119526;28;19923;-62
2023/10/26 10:15:09;;;;;;;;;;;;;;;;;;5123546;28;19924;-60
2023/10/26 10:17:35;;;;;;;;;;;;;;;;;;5124995;28;19916;-61
2023/10/26 10:20:01;;;;;;;;;;;;;;;;;;5115511;28;19923;-59
2023/10/26 10:22:26;;;;;;;;;;;;;;;;;;5115342;28;19919;-56
2023/10/26 10:24:53;;;;;;;;;;;;;;;;;;5114529;28;19919;-61
2023/10/26 10:27:18;;;;;;;;;;;;;;;;;;5113473;28;19916;-60
2023/10/26 10:29:44;;;;;;;;;;;;;;;;;;5115185;28;19947;-57
2023/10/26 10:32:13;;;;;;;;;;;;;;;;;;5114566;28;19912;-54
2023/10/26 10:34:38;;;;;;;;;;;;;;;;;;5114905;28;19912;-58
2023/10/26 10:37:03;;;;;;;;;;;;;;;;;;5114931;28;19952;-61
2023/10/26 10:39:29;;;;;;;;;;;;;;;;;;5114915;28;19932;-61
2023/10/26 10:41:54;;;;;;;;;;;;;;;;;;5114847;28;19948;-60
2023/10/26 10:44:20;;;;;;;;;;;;;;;;;;5114909;28;20189;-61
2023/10/26 10:46:45;;;;;;;;;;;;;;;;;;5120076;28;19912;-60
2023/10/26 10:49:12;;;;;;;;;;;;;;;;;;5122030;28;19916;-58
2023/10/26 10:51:37;;;;;;;;;;;;;;;;;;5114426;28;19913;-61
2023/10/26 10:54:03;;;;;;;;;;;;;;;;;;5114553;28;19951;-60
2023/10/26 10:56:28;;;;;;;;;;;;;;;;;;5116539;28;19912;-59
2023/10/26 10:58:56;;;;;;;;;;;;;;;;;;5122201;28;19916;-61
2023/10/26 11:01:21;;;;;;;;;;;;;;;;;;5113845;28;19916;-55
2023/10/26 11:03:47;;;;;;;;;;;;;;;;;;5114687;28;19979;-60
2023/10/26 11:06:12;;;;;;;;;;;;;;;;;;5114668;28;19916;-61
2023/10/26 11:08:38;;;;;;;;;;;;;;;;;;5121711;28;19916;-53
2023/10/26 11:11:03;;;;;;;;;;;;;;;;;;5114487;28;19962;-52
2023/10/26 11:13:29;;;;;;;;;;;;;;;;;;5114261;28;19922;-59
2023/10/26 11:15:54;;;;;;;;;;;;;;;;;;5114553;28;19913;-62
2023/10/26 11:18:20;;;;;;;;;;;;;;;;;;5117807;28;19916;-62
2023/10/26 11:20:46;;;;;;;;;;;;;;;;;;5114620;28;19912;-62
2023/10/26 11:23:11;;;;;;;;;;;;;;;;;;5114502;28;19954;-60
2023/10/26 11:25:37;;;;;;;;;;;;;;;;;;5114418;28;19908;-58
2023/10/26 11:28:02;;;;;;;;;;;;;;;;;;5115307;28;19990;-61
2023/10/26 11:30:27;;;;;;;;;;;;;;;;;;5114260;28;19912;-61
2023/10/26 11:32:52;;;;;;;;;;;;;;;;;;5114091;28;20422;-61
2023/10/26 11:35:18;;;;;;;;;;;;;;;;;;5126383;28;19912;-61
2023/10/26 11:37:43;;;;;;;;;;;;;;;;;;5123055;28;19915;-57
2023/10/26 11:40:09;;;;;;;;;;;;;;;;;;5119967;28;19918;-59
2023/10/26 11:42:34;;;;;;;;;;;;;;;;;;5118349;28;19923;-62
2023/10/26 11:45:00;;;;;;;;;;;;;;;;;;5127395;28;19912;-62
2023/10/26 11:47:25;;;;;;;;;;;;;;;;;;5123645;28;19919;-58
2023/10/26 11:49:51;;;;;;;;;;;;;;;;;;5120069;28;19916;-62
2023/10/26 11:52:17;;;;;;;;;;;;;;;;;;5117725;28;19912;-62
2023/10/26 11:54:43;;;;;;;;;;;;;;;;;;5123550;28;19985;-58
2023/10/26 11:57:08;;;;;;;;;;;;;;;;;;5120268;28;19924;-60
2023/10/26 11:59:34;;;;;;;;;;;;;;;;;;5119036;28;19931;-60
2023/10/26 12:01:59;;;;;;;;;;;;;;;;;;5117358;28;19955;-59
2023/10/26 12:04:25;;;;;;;;;;;;;;;;;;5119674;28;19942;-61
2023/10/26 12:06:50;;;;;;;;;;;;;;;;;;5117715;28;19975;-59
2023/10/26 12:09:15;;;;;;;;;;;;;;;;;;5119177;28;19937;-62
2023/10/26 12:11:42;;;;;;;;;;;;;;;;;;5116902;28;19935;-61
2023/10/26 12:14:07;;;;;;;;;;;;;;;;;;5120260;28;19916;-61
2023/10/26 12:16:33;;;;;;;;;;;;;;;;;;5127297;28;19923;-60
2023/10/26 12:18:58;;;;;;;;;;;;;;;;;;5129756;28;19912;-59
2023/10/26 12:21:23;;;;;;;;;;;;;;;;;;5116689;28;19923;-60
2023/10/26 12:23:49;;;;;;;;;;;;;;;;;;5117295;28;19923;-59
2023/10/26 12:26:14;;;;;;;;;;;;;;;;;;5123113;28;19939;-60
2023/10/26 12:28:40;;;;;;;;;;;;;;;;;;5120284;28;19916;-59
2023/10/26 12:31:05;;;;;;;;;;;;;;;;;;5117170;28;19971;-59
2023/10/26 12:33:31;;;;;;;;;;;;;;;;;;5116105;28;19954;-60
2023/10/26 12:35:56;;;;;;;;;;;;;;;;;;5117313;28;19912;-60
2023/10/26 12:38:23;;;;;;;;;;;;;;;;;;5116927;28;19927;-61
2023/10/26 12:40:49;;;;;;;;;;;;;;;;;;5107195;28;19948;-59
2023/10/26 12:43:14;;;;;;;;;;;;;;;;;;5112701;28;19946;-60
2023/10/26 12:45:40;;;;;;;;;;;;;;;;;;5116842;28;19937;-61
2023/10/26 12:48:05;;;;;;;;;;;;;;;;;;5119174;28;19916;-59
2023/10/26 12:50:31;;;;;;;;;;;;;;;;;;5115940;28;19918;-61
2023/10/26 12:52:56;;;;;;;;;;;;;;;;;;5116658;28;19972;-60
2023/10/26 12:55:23;;;;;;;;;;;;;;;;;;5116565;28;19912;-61
2023/10/26 12:57:49;;;;;;;;;;;;;;;;;;5119461;28;19947;-61
2023/10/26 13:00:14;;;;;;;;;;;;;;;;;;5127223;28;19932;-60
2023/10/26 13:02:40;;;;;;;;;;;;;;;;;;5116095;28;19947;-61
2023/10/26 13:05:05;;;;;;;;;;;;;;;;;;5116595;28;19912;-59
2023/10/26 13:07:31;;;;;;;;;;;;;;;;;;5116222;28;19922;-62
2023/10/26 13:09:56;;;;;;;;;;;;;;;;;;5126645;28;19954;-59
2023/10/26 13:12:22;;;;;;;;;;;;;;;;;;5116389;28;20104;-61
2023/10/26 13:14:47;;;;;;;;;;;;;;;;;;5122426;28;19912;-61
2023/10/26 13:17:14;;;;;;;;;;;;;;;;;;5115696;28;19941;-61
2023/10/26 13:19:40;;;;;;;;;;;;;;;;;;5123068;28;19912;-61
2023/10/26 13:22:05;;;;;;;;;;;;;;;;;;5117094;28;19920;-62
2023/10/26 13:24:32;;;;;;;;;;;;;;;;;;5116094;28;19908;-60
2023/10/26 13:26:58;;;;;;;;;;;;;;;;;;5115771;28;19975;-61
2023/10/26 13:29:23;;;;;;;;;;;;;;;;;;5118910;28;19920;-62
2023/10/26 13:31:49;;;;;;;;;;;;;;;;;;5115743;28;19912;-61
2023/10/26 13:34:14;;;;;;;;;;;;;;;;;;5116131;28;19984;-61
2023/10/26 13:36:40;;;;;;;;;;;;;;;;;;5115902;28;19919;-61
2023/10/26 13:39:05;;;;;;;;;;;;;;;;;;5115478;28;19912;-57
2023/10/26 13:41:31;;;;;;;;;;;;;;;;;;5115262;28;19924;-55
2023/10/26 13:43:58;;;;;;;;;;;;;;;;;;5115726;28;19912;-61
2023/10/26 13:46:23;;;;;;;;;;;;;;;;;;5114627;28;19916;-55
2023/10/26 13:48:49;;;;;;;;;;;;;;;;;;5121798;28;19937;-56
2023/10/26 13:51:15;;;;;;;;;;;;;;;;;;5119670;28;19958;-56
2023/10/26 13:53:40;;;;;;;;;;;;;;;;;;5115459;28;19923;-58
2023/10/26 13:56:05;;;;;;;;;;;;;;;;;;5123061;28;19911;-56
2023/10/26 13:58:31;;;;;;;;;;;;;;;;;;5115386;28;19923;-57
2023/10/26 14:00:56;;;;;;;;;;;;;;;;;;5114800;28;19922;-57
2023/10/26 14:03:22;;;;;;;;;;;;;;;;;;5115240;28;19923;-57
2023/10/26 14:05:47;;;;;;;;;;;;;;;;;;5115275;28;19912;-55
2023/10/26 14:08:12;;;;;;;;;;;;;;;;;;5115249;28;19965;-58
2023/10/26 14:10:38;;;;;;;;;;;;;;;;;;5118847;28;19911;-57
2023/10/26 14:13:04;;;;;;;;;;;;;;;;;;5115262;28;19916;-57
2023/10/26 14:15:30;;;;;;;;;;;;;;;;;;5114967;28;19923;-57
2023/10/26 14:17:56;;;;;;;;;;;;;;;;;;5115185;28;19912;-55
2023/10/26 14:20:21;;;;;;;;;;;;;;;;;;5116334;28;20014;-59
2023/10/26 14:22:47;;;;;;;;;;;;;;;;;;5115060;28;19913;-56
2023/10/26 14:25:12;;;;;;;;;;;;;;;;;;5114636;28;19981;-57
2023/10/26 14:27:39;;;;;;;;;;;;;;;;;;5115026;28;19943;-58
2023/10/26 14:30:04;;;;;;;;;;;;;;;;;;5126194;28;19916;-59
2023/10/26 14:32:30;;;;;;;;;;;;;;;;;;5115139;28;19923;-56
2023/10/26 14:34:56;;;;;;;;;;;;;;;;;;5115501;28;19991;-56
2023/10/26 14:37:21;;;;;;;;;;;;;;;;;;5123275;28;19922;-57
2023/10/26 14:39:47;;;;;;;;;;;;;;;;;;5123333;28;19911;-56
2023/10/26 14:42:15;;;;;;;;;;;;;;;;;;5114832;28;19920;-58
2023/10/26 14:44:40;;;;;;;;;;;;;;;;;;5114789;28;19920;-61
2023/10/26 14:47:06;;;;;;;;;;;;;;;;;;5114801;28;19912;-57
2023/10/26 14:49:31;;;;;;;;;;;;;;;;;;5119656;28;19937;-55
2023/10/26 14:51:57;;;;;;;;;;;;;;;;;;5114999;28;19938;-54
2023/10/26 14:54:24;;;;;;;;;;;;;;;;;;5114637;28;19912;-57
2023/10/26 14:56:49;;;;;;;;;;;;;;;;;;5114666;28;19912;-57
2023/10/26 14:59:15;;;;;;;;;;;;;;;;;;5114622;28;19939;-57
2023/10/26 15:01:40;;;;;;;;;;;;;;;;;;5114519;28;19912;-57
2023/10/26 15:04:07;;;;;;;;;;;;;;;;;;5114559;28;19912;-56
2023/10/26 15:06:32;;;;;;;;;;;;;;;;;;5114525;28;19935;-56
2023/10/26 15:08:58;;;;;;;;;;;;;;;;;;5114846;28;19919;-54
2023/10/26 15:11:23;;;;;;;;;;;;;;;;;;5125261;28;19994;-57
2023/10/26 15:13:49;;;;;;;;;;;;;;;;;;5116134;28;19975;-58
2023/10/26 15:16:14;;;;;;;;;;;;;;;;;;5122493;28;19912;-57
2023/10/26 15:18:40;;;;;;;;;;;;;;;;;;5122873;28;19912;-57
2023/10/26 15:21:06;;;;;;;;;;;;;;;;;;5128107;28;19912;-55
2023/10/26 15:23:31;;;;;;;;;;;;;;;;;;5118270;28;19911;-56
2023/10/26 15:25:58;;;;;;;;;;;;;;;;;;5119244;28;19913;-56
2023/10/26 15:28:23;;;;;;;;;;;;;;;;;;5124145;28;19949;-56
2023/10/26 15:30:48;;;;;;;;;;;;;;;;;;5123541;28;19944;-53
2023/10/26 15:33:14;;;;;;;;;;;;;;;;;;5117745;28;19923;-56
2023/10/26 15:35:39;;;;;;;;;;;;;;;;;;5118375;28;19912;-54
2023/10/26 15:38:05;;;;;;;;;;;;;;;;;;5118015;28;19912;-57
2023/10/26 15:40:30;;;;;;;;;;;;;;;;;;5117975;28;19923;-55
2023/10/26 15:42:56;;;;;;;;;;;;;;;;;;5118043;28;19912;-54
2023/10/26 15:45:21;;;;;;;;;;;;;;;;;;5117780;28;19912;-57
2023/10/26 15:47:47;;;;;;;;;;;;;;;;;;5117557;28;19928;-58
2023/10/26 15:50:12;;;;;;;;;;;;;;;;;;5118076;28;19919;-55
2023/10/26 15:52:38;;;;;;;;;;;;;;;;;;5117795;28;19975;-57
2023/10/26 15:55:03;;;;;;;;;;;;;;;;;;5117675;28;19920;-57
2023/10/26 15:57:31;;;;;;;;;;;;;;;;;;5128218;28;19911;-53
2023/10/26 15:59:57;;;;;;;;;;;;;;;;;;5121962;28;19912;-58
2023/10/26 16:02:22;;;;;;;;;;;;;;;;;;5121111;28;19920;-58
2023/10/26 16:04:49;;;;;;;;;;;;;;;;;;5116911;28;19913;-59
2023/10/26 16:07:15;;;;;;;;;;;;;;;;;;5116779;28;19953;-56
2023/10/26 16:09:40;;;;;;;;;;;;;;;;;;5118710;28;19912;-60
2023/10/26 16:12:07;;;;;;;;;;;;;;;;;;5123306;28;19912;-57
2023/10/26 16:14:33;;;;;;;;;;;;;;;;;;5117444;28;19992;-57
2023/10/26 16:16:58;;;;;;;;;;;;;;;;;;5117134;28;19912;-54
2023/10/26 16:19:25;;;;;;;;;;;;;;;;;;5117140;28;19916;-57
2023/10/26 16:21:51;;;;;;;;;;;;;;;;;;5122126;28;19923;-55
2023/10/26 16:24:17;;;;;;;;;;;;;;;;;;5117192;28;19916;-57
2023/10/26 16:26:43;;;;;;;;;;;;;;;;;;5116948;28;19929;-56
2023/10/26 16:29:09;;;;;;;;;;;;;;;;;;5117188;28;19920;-56
2023/10/26 16:31:34;;;;;;;;;;;;;;;;;;5117983;28;20381;-55
2023/10/26 16:34:00;;;;;;;;;;;;;;;;;;5117104;28;19939;-55
2023/10/26 16:36:26;;;;;;;;;;;;;;;;;;5116892;28;19912;-54
2023/10/26 16:38:51;;;;;;;;;;;;;;;;;;5127092;28;20003;-56
2023/10/26 16:41:18;;;;;;;;;;;;;;;;;;5127151;28;19997;-58